sensor_id;sensor_type;location;lat;lon;timestamp;P1;durP1;ratioP1;P2;durP2;ratioP2
17844;SDS011;9047;53.486;10.218;2023-12-28T00:01:37;5.72;;;2.47;;
17844;SDS011;9047;53.486;10.218;2023-12-28T00:04:04;3.20;;;2.08;;
17844;SDS011;9047;53.486;10.218;2023-12-28T00:06:33;3.88;;;2.20;;
17844;SDS011;9047;53.486;10.218;2023-12-28T00:08:59;4.22;;;2.20;;
17844;SDS011;9047;53.486;10.218;2023-12-28T00:11:25;4.72;;;2.38;;
17844;SDS011;9047;53.486;10.218;2023-12-28T00:13:52;5.95;;;2.40;;
17844;SDS011;9047;53.486;10.218;2023-12-28T00:16:19;4.75;;;2.15;;
17844;SDS011;9047;53.486;10.218;2023-12-28T00:18:46;3.13;;;1.90;;
17844;SDS011;9047;53.486;10.218;2023-12-28T00:21:16;4.78;;;1.90;;
17844;SDS011;9047;53.486;10.218;2023-12-28T00:23:46;4.43;;;1.83;;
17844;SDS011;9047;53.486;10.218;2023-12-28T00:26:13;4.28;;;1.90;;
17844;SDS011;9047;53.486;10.218;2023-12-28T00:28:46;4.60;;;2.17;;
17844;SDS011;9047;53.486;10.218;2023-12-28T00:31:13;5.30;;;2.22;;
17844;SDS011;9047;53.486;10.218;2023-12-28T00:33:40;5.32;;;2.22;;
17844;SDS011;9047;53.486;10.218;2023-12-28T00:36:07;4.90;;;2.85;;
17844;SDS011;9047;53.486;10.218;2023-12-28T00:38:36;3.65;;;1.90;;
17844;SDS011;9047;53.486;10.218;2023-12-28T00:41:04;3.10;;;2.00;;
17844;SDS011;9047;53.486;10.218;2023-12-28T00:43:31;4.28;;;2.13;;
17844;SDS011;9047;53.486;10.218;2023-12-28T00:45:58;2.67;;;1.80;;
17844;SDS011;9047;53.486;10.218;2023-12-28T00:48:25;4.13;;;2.03;;
17844;SDS011;9047;53.486;10.218;2023-12-28T00:50:52;3.85;;;1.83;;
17844;SDS011;9047;53.486;10.218;2023-12-28T00:53:20;4.78;;;2.00;;
17844;SDS011;9047;53.486;10.218;2023-12-28T00:55:48;3.05;;;1.67;;
17844;SDS011;9047;53.486;10.218;2023-12-28T00:58:16;3.45;;;1.90;;
17844;SDS011;9047;53.486;10.218;2023-12-28T01:00:43;3.70;;;2.53;;
17844;SDS011;9047;53.486;10.218;2023-12-28T01:03:10;3.33;;;2.35;;
17844;SDS011;9047;53.486;10.218;2023-12-28T01:05:37;3.38;;;2.00;;
17844;SDS011;9047;53.486;10.218;2023-12-28T01:08:04;3.78;;;2.00;;
17844;SDS011;9047;53.486;10.218;2023-12-28T01:10:31;4.10;;;2.10;;
17844;SDS011;9047;53.486;10.218;2023-12-28T01:12:57;3.88;;;1.95;;
17844;SDS011;9047;53.486;10.218;2023-12-28T01:15:26;3.63;;;2.08;;
17844;SDS011;9047;53.486;10.218;2023-12-28T01:17:53;3.95;;;2.03;;
17844;SDS011;9047;53.486;10.218;2023-12-28T01:20:20;3.78;;;1.90;;
17844;SDS011;9047;53.486;10.218;2023-12-28T01:22:47;2.90;;;1.60;;
17844;SDS011;9047;53.486;10.218;2023-12-28T01:25:15;3.58;;;1.98;;
17844;SDS011;9047;53.486;10.218;2023-12-28T01:27:41;2.80;;;2.10;;
17844;SDS011;9047;53.486;10.218;2023-12-28T01:30:09;3.05;;;1.75;;
17844;SDS011;9047;53.486;10.218;2023-12-28T01:32:37;4.13;;;2.08;;
17844;SDS011;9047;53.486;10.218;2023-12-28T01:35:04;3.60;;;1.83;;
17844;SDS011;9047;53.486;10.218;2023-12-28T01:37:32;3.78;;;1.90;;
17844;SDS011;9047;53.486;10.218;2023-12-28T01:39:58;3.17;;;2.25;;
17844;SDS011;9047;53.486;10.218;2023-12-28T01:42:26;4.38;;;2.00;;
17844;SDS011;9047;53.486;10.218;2023-12-28T01:44:55;4.80;;;1.90;;
17844;SDS011;9047;53.486;10.218;2023-12-28T01:47:22;6.10;;;2.15;;
17844;SDS011;9047;53.486;10.218;2023-12-28T01:49:52;4.07;;;2.20;;
17844;SDS011;9047;53.486;10.218;2023-12-28T01:52:19;3.05;;;2.20;;
17844;SDS011;9047;53.486;10.218;2023-12-28T01:54:46;4.53;;;1.90;;
17844;SDS011;9047;53.486;10.218;2023-12-28T01:57:14;3.80;;;1.90;;
17844;SDS011;9047;53.486;10.218;2023-12-28T01:59:43;4.93;;;2.20;;
17844;SDS011;9047;53.486;10.218;2023-12-28T02:02:11;3.13;;;2.03;;
17844;SDS011;9047;53.486;10.218;2023-12-28T02:04:39;2.97;;;2.15;;
17844;SDS011;9047;53.486;10.218;2023-12-28T02:07:07;3.45;;;2.10;;
17844;SDS011;9047;53.486;10.218;2023-12-28T02:09:36;3.95;;;2.08;;
17844;SDS011;9047;53.486;10.218;2023-12-28T02:12:03;2.78;;;2.05;;
17844;SDS011;9047;53.486;10.218;2023-12-28T02:14:31;4.18;;;2.22;;
17844;SDS011;9047;53.486;10.218;2023-12-28T02:17:00;4.95;;;2.63;;
17844;SDS011;9047;53.486;10.218;2023-12-28T02:19:38;5.15;;;2.47;;
17844;SDS011;9047;53.486;10.218;2023-12-28T02:22:11;4.97;;;2.45;;
17844;SDS011;9047;53.486;10.218;2023-12-28T02:24:57;4.38;;;2.63;;
17844;SDS011;9047;53.486;10.218;2023-12-28T02:27:31;5.20;;;2.47;;
17844;SDS011;9047;53.486;10.218;2023-12-28T02:29:58;4.38;;;2.47;;
17844;SDS011;9047;53.486;10.218;2023-12-28T02:32:28;5.20;;;2.63;;
17844;SDS011;9047;53.486;10.218;2023-12-28T02:35:09;4.38;;;2.60;;
17844;SDS011;9047;53.486;10.218;2023-12-28T02:37:41;4.35;;;2.30;;
17844;SDS011;9047;53.486;10.218;2023-12-28T02:40:11;4.60;;;2.90;;
17844;SDS011;9047;53.486;10.218;2023-12-28T02:42:41;3.20;;;2.30;;
17844;SDS011;9047;53.486;10.218;2023-12-28T02:45:08;3.80;;;2.67;;
17844;SDS011;9047;53.486;10.218;2023-12-28T02:47:35;5.63;;;2.63;;
17844;SDS011;9047;53.486;10.218;2023-12-28T02:50:02;5.60;;;2.50;;
17844;SDS011;9047;53.486;10.218;2023-12-28T02:52:30;4.63;;;2.78;;
17844;SDS011;9047;53.486;10.218;2023-12-28T02:54:56;4.63;;;2.67;;
17844;SDS011;9047;53.486;10.218;2023-12-28T02:57:25;5.40;;;2.78;;
17844;SDS011;9047;53.486;10.218;2023-12-28T02:59:51;4.35;;;2.65;;
17844;SDS011;9047;53.486;10.218;2023-12-28T03:02:18;3.65;;;2.50;;
17844;SDS011;9047;53.486;10.218;2023-12-28T03:04:45;4.07;;;2.83;;
17844;SDS011;9047;53.486;10.218;2023-12-28T03:07:12;4.00;;;2.70;;
17844;SDS011;9047;53.486;10.218;2023-12-28T03:09:39;5.05;;;2.80;;
17844;SDS011;9047;53.486;10.218;2023-12-28T03:12:06;5.35;;;2.88;;
17844;SDS011;9047;53.486;10.218;2023-12-28T03:14:34;4.72;;;2.83;;
17844;SDS011;9047;53.486;10.218;2023-12-28T03:17:01;4.38;;;2.90;;
17844;SDS011;9047;53.486;10.218;2023-12-28T03:19:28;4.38;;;3.00;;
17844;SDS011;9047;53.486;10.218;2023-12-28T03:21:55;4.72;;;3.28;;
17844;SDS011;9047;53.486;10.218;2023-12-28T03:24:21;6.18;;;3.13;;
17844;SDS011;9047;53.486;10.218;2023-12-28T03:26:48;4.97;;;3.00;;
17844;SDS011;9047;53.486;10.218;2023-12-28T03:29:15;4.18;;;2.70;;
17844;SDS011;9047;53.486;10.218;2023-12-28T03:31:43;4.47;;;2.90;;
17844;SDS011;9047;53.486;10.218;2023-12-28T03:34:10;6.68;;;3.20;;
17844;SDS011;9047;53.486;10.218;2023-12-28T03:36:37;5.68;;;3.10;;
17844;SDS011;9047;53.486;10.218;2023-12-28T03:39:04;4.70;;;2.97;;
17844;SDS011;9047;53.486;10.218;2023-12-28T03:41:31;4.45;;;2.72;;
17844;SDS011;9047;53.486;10.218;2023-12-28T03:43:58;5.68;;;3.03;;
17844;SDS011;9047;53.486;10.218;2023-12-28T03:46:25;3.97;;;2.90;;
17844;SDS011;9047;53.486;10.218;2023-12-28T03:48:54;4.57;;;3.03;;
17844;SDS011;9047;53.486;10.218;2023-12-28T03:51:24;4.88;;;2.83;;
17844;SDS011;9047;53.486;10.218;2023-12-28T03:53:51;6.97;;;3.15;;
17844;SDS011;9047;53.486;10.218;2023-12-28T03:56:18;4.75;;;3.00;;
17844;SDS011;9047;53.486;10.218;2023-12-28T03:58:47;5.53;;;3.15;;
17844;SDS011;9047;53.486;10.218;2023-12-28T04:01:16;5.95;;;3.00;;
17844;SDS011;9047;53.486;10.218;2023-12-28T04:03:43;5.78;;;3.10;;
17844;SDS011;9047;53.486;10.218;2023-12-28T04:06:12;3.83;;;2.80;;
17844;SDS011;9047;53.486;10.218;2023-12-28T04:08:39;4.75;;;2.63;;
17844;SDS011;9047;53.486;10.218;2023-12-28T04:11:06;4.85;;;2.88;;
17844;SDS011;9047;53.486;10.218;2023-12-28T04:13:33;5.28;;;3.00;;
17844;SDS011;9047;53.486;10.218;2023-12-28T04:16:00;4.47;;;2.75;;
17844;SDS011;9047;53.486;10.218;2023-12-28T04:18:27;7.07;;;2.72;;
17844;SDS011;9047;53.486;10.218;2023-12-28T04:20:53;4.63;;;3.03;;
17844;SDS011;9047;53.486;10.218;2023-12-28T04:23:22;6.10;;;3.15;;
17844;SDS011;9047;53.486;10.218;2023-12-28T04:25:49;4.35;;;2.97;;
17844;SDS011;9047;53.486;10.218;2023-12-28T04:28:16;7.03;;;3.45;;
17844;SDS011;9047;53.486;10.218;2023-12-28T04:30:42;5.10;;;3.15;;
17844;SDS011;9047;53.486;10.218;2023-12-28T04:33:09;5.55;;;3.33;;
17844;SDS011;9047;53.486;10.218;2023-12-28T04:35:36;4.78;;;3.00;;
17844;SDS011;9047;53.486;10.218;2023-12-28T04:38:03;6.93;;;3.25;;
17844;SDS011;9047;53.486;10.218;2023-12-28T04:40:32;5.18;;;3.50;;
17844;SDS011;9047;53.486;10.218;2023-12-28T04:42:58;6.05;;;3.05;;
17844;SDS011;9047;53.486;10.218;2023-12-28T04:45:25;5.82;;;3.40;;
17844;SDS011;9047;53.486;10.218;2023-12-28T04:47:52;6.40;;;3.88;;
17844;SDS011;9047;53.486;10.218;2023-12-28T04:50:19;5.78;;;2.67;;
17844;SDS011;9047;53.486;10.218;2023-12-28T04:52:46;5.97;;;3.03;;
17844;SDS011;9047;53.486;10.218;2023-12-28T04:55:13;6.07;;;3.22;;
17844;SDS011;9047;53.486;10.218;2023-12-28T04:57:41;6.63;;;3.42;;
17844;SDS011;9047;53.486;10.218;2023-12-28T05:00:08;6.28;;;3.40;;
17844;SDS011;9047;53.486;10.218;2023-12-28T05:02:36;7.35;;;3.47;;
17844;SDS011;9047;53.486;10.218;2023-12-28T05:05:03;4.97;;;3.08;;
17844;SDS011;9047;53.486;10.218;2023-12-28T05:07:30;7.43;;;3.20;;
17844;SDS011;9047;53.486;10.218;2023-12-28T05:09:57;5.68;;;3.28;;
17844;SDS011;9047;53.486;10.218;2023-12-28T05:12:24;6.45;;;3.35;;
17844;SDS011;9047;53.486;10.218;2023-12-28T05:14:52;6.70;;;3.55;;
17844;SDS011;9047;53.486;10.218;2023-12-28T05:17:19;6.60;;;3.40;;
17844;SDS011;9047;53.486;10.218;2023-12-28T05:19:46;9.00;;;3.47;;
17844;SDS011;9047;53.486;10.218;2023-12-28T05:22:13;9.40;;;3.30;;
17844;SDS011;9047;53.486;10.218;2023-12-28T05:24:40;6.03;;;3.45;;
17844;SDS011;9047;53.486;10.218;2023-12-28T05:27:06;6.95;;;3.47;;
17844;SDS011;9047;53.486;10.218;2023-12-28T05:29:33;8.43;;;3.42;;
17844;SDS011;9047;53.486;10.218;2023-12-28T05:32:02;6.28;;;3.38;;
17844;SDS011;9047;53.486;10.218;2023-12-28T05:34:28;7.03;;;3.50;;
17844;SDS011;9047;53.486;10.218;2023-12-28T05:36:55;4.97;;;3.10;;
17844;SDS011;9047;53.486;10.218;2023-12-28T05:39:22;8.93;;;3.33;;
17844;SDS011;9047;53.486;10.218;2023-12-28T05:41:49;8.45;;;3.30;;
17844;SDS011;9047;53.486;10.218;2023-12-28T05:44:16;7.40;;;3.60;;
17844;SDS011;9047;53.486;10.218;2023-12-28T05:46:45;6.35;;;3.40;;
17844;SDS011;9047;53.486;10.218;2023-12-28T05:49:15;6.80;;;3.28;;
17844;SDS011;9047;53.486;10.218;2023-12-28T05:51:44;6.30;;;3.15;;
17844;SDS011;9047;53.486;10.218;2023-12-28T05:54:21;6.32;;;3.50;;
17844;SDS011;9047;53.486;10.218;2023-12-28T05:56:49;6.50;;;3.35;;
17844;SDS011;9047;53.486;10.218;2023-12-28T05:59:15;6.80;;;3.25;;
17844;SDS011;9047;53.486;10.218;2023-12-28T06:01:42;8.50;;;3.58;;
17844;SDS011;9047;53.486;10.218;2023-12-28T06:04:10;4.97;;;3.17;;
17844;SDS011;9047;53.486;10.218;2023-12-28T06:06:38;7.63;;;3.25;;
17844;SDS011;9047;53.486;10.218;2023-12-28T06:09:09;7.57;;;3.20;;
17844;SDS011;9047;53.486;10.218;2023-12-28T06:11:37;6.63;;;3.20;;
17844;SDS011;9047;53.486;10.218;2023-12-28T06:14:04;6.05;;;3.20;;
17844;SDS011;9047;53.486;10.218;2023-12-28T06:16:31;5.22;;;2.97;;
17844;SDS011;9047;53.486;10.218;2023-12-28T06:18:58;7.97;;;3.25;;
17844;SDS011;9047;53.486;10.218;2023-12-28T06:21:26;6.28;;;3.30;;
17844;SDS011;9047;53.486;10.218;2023-12-28T06:23:54;5.85;;;3.35;;
17844;SDS011;9047;53.486;10.218;2023-12-28T06:26:22;5.97;;;2.83;;
17844;SDS011;9047;53.486;10.218;2023-12-28T06:28:52;4.60;;;3.00;;
17844;SDS011;9047;53.486;10.218;2023-12-28T06:31:18;8.25;;;3.30;;
17844;SDS011;9047;53.486;10.218;2023-12-28T06:33:45;4.22;;;3.05;;
17844;SDS011;9047;53.486;10.218;2023-12-28T06:36:16;4.82;;;2.95;;
17844;SDS011;9047;53.486;10.218;2023-12-28T06:38:43;7.68;;;3.00;;
17844;SDS011;9047;53.486;10.218;2023-12-28T06:41:12;6.13;;;2.90;;
17844;SDS011;9047;53.486;10.218;2023-12-28T06:43:39;5.60;;;2.95;;
17844;SDS011;9047;53.486;10.218;2023-12-28T06:46:05;6.80;;;2.75;;
17844;SDS011;9047;53.486;10.218;2023-12-28T06:48:32;7.47;;;2.65;;
17844;SDS011;9047;53.486;10.218;2023-12-28T06:50:59;7.15;;;2.60;;
17844;SDS011;9047;53.486;10.218;2023-12-28T06:53:27;7.18;;;2.63;;
17844;SDS011;9047;53.486;10.218;2023-12-28T06:55:54;7.55;;;2.80;;
17844;SDS011;9047;53.486;10.218;2023-12-28T06:58:22;8.10;;;2.75;;
17844;SDS011;9047;53.486;10.218;2023-12-28T07:00:49;6.05;;;2.60;;
17844;SDS011;9047;53.486;10.218;2023-12-28T07:03:16;5.88;;;2.80;;
17844;SDS011;9047;53.486;10.218;2023-12-28T07:05:47;4.70;;;2.30;;
17844;SDS011;9047;53.486;10.218;2023-12-28T07:08:14;6.95;;;2.50;;
17844;SDS011;9047;53.486;10.218;2023-12-28T07:10:41;6.85;;;2.40;;
17844;SDS011;9047;53.486;10.218;2023-12-28T07:13:07;4.95;;;2.40;;
17844;SDS011;9047;53.486;10.218;2023-12-28T07:15:36;6.85;;;3.20;;
17844;SDS011;9047;53.486;10.218;2023-12-28T07:18:03;7.38;;;2.65;;
17844;SDS011;9047;53.486;10.218;2023-12-28T07:20:30;9.60;;;2.70;;
17844;SDS011;9047;53.486;10.218;2023-12-28T07:22:58;6.60;;;2.42;;
17844;SDS011;9047;53.486;10.218;2023-12-28T07:25:24;5.57;;;2.60;;
17844;SDS011;9047;53.486;10.218;2023-12-28T07:27:51;6.13;;;2.40;;
17844;SDS011;9047;53.486;10.218;2023-12-28T07:30:18;6.53;;;2.35;;
17844;SDS011;9047;53.486;10.218;2023-12-28T07:32:47;7.88;;;2.40;;
17844;SDS011;9047;53.486;10.218;2023-12-28T07:35:14;6.65;;;2.55;;
17844;SDS011;9047;53.486;10.218;2023-12-28T07:37:40;6.13;;;2.22;;
17844;SDS011;9047;53.486;10.218;2023-12-28T07:40:07;7.22;;;2.42;;
17844;SDS011;9047;53.486;10.218;2023-12-28T07:42:35;7.03;;;2.50;;
17844;SDS011;9047;53.486;10.218;2023-12-28T07:45:08;5.88;;;2.60;;
17844;SDS011;9047;53.486;10.218;2023-12-28T07:47:39;7.00;;;2.55;;
17844;SDS011;9047;53.486;10.218;2023-12-28T07:50:08;6.40;;;2.58;;
17844;SDS011;9047;53.486;10.218;2023-12-28T07:52:36;8.05;;;2.40;;
17844;SDS011;9047;53.486;10.218;2023-12-28T07:55:04;4.15;;;2.22;;
17844;SDS011;9047;53.486;10.218;2023-12-28T07:57:35;6.85;;;2.17;;
17844;SDS011;9047;53.486;10.218;2023-12-28T08:00:02;6.53;;;2.50;;
17844;SDS011;9047;53.486;10.218;2023-12-28T08:02:31;7.28;;;2.17;;
17844;SDS011;9047;53.486;10.218;2023-12-28T08:04:59;7.45;;;2.63;;
17844;SDS011;9047;53.486;10.218;2023-12-28T08:07:33;8.60;;;2.58;;
17844;SDS011;9047;53.486;10.218;2023-12-28T08:10:03;7.45;;;2.42;;
17844;SDS011;9047;53.486;10.218;2023-12-28T08:12:32;9.63;;;2.40;;
17844;SDS011;9047;53.486;10.218;2023-12-28T08:15:00;3.88;;;2.17;;
17844;SDS011;9047;53.486;10.218;2023-12-28T08:17:27;4.65;;;2.15;;
17844;SDS011;9047;53.486;10.218;2023-12-28T08:19:56;5.95;;;2.33;;
17844;SDS011;9047;53.486;10.218;2023-12-28T08:22:25;7.32;;;1.95;;
17844;SDS011;9047;53.486;10.218;2023-12-28T08:24:56;6.35;;;2.22;;
17844;SDS011;9047;53.486;10.218;2023-12-28T08:27:25;8.13;;;2.25;;
17844;SDS011;9047;53.486;10.218;2023-12-28T08:29:52;10.98;;;2.45;;
17844;SDS011;9047;53.486;10.218;2023-12-28T08:32:21;6.55;;;2.33;;
17844;SDS011;9047;53.486;10.218;2023-12-28T08:34:49;5.47;;;2.05;;
17844;SDS011;9047;53.486;10.218;2023-12-28T08:37:16;8.43;;;2.47;;
17844;SDS011;9047;53.486;10.218;2023-12-28T08:39:45;7.30;;;2.30;;
17844;SDS011;9047;53.486;10.218;2023-12-28T08:42:11;6.47;;;2.33;;
17844;SDS011;9047;53.486;10.218;2023-12-28T08:44:38;5.75;;;2.08;;
17844;SDS011;9047;53.486;10.218;2023-12-28T08:47:05;8.55;;;2.38;;
17844;SDS011;9047;53.486;10.218;2023-12-28T08:49:32;8.05;;;2.22;;
17844;SDS011;9047;53.486;10.218;2023-12-28T08:52:02;8.20;;;2.10;;
17844;SDS011;9047;53.486;10.218;2023-12-28T08:54:30;7.05;;;2.10;;
17844;SDS011;9047;53.486;10.218;2023-12-28T08:57:01;6.78;;;2.40;;
17844;SDS011;9047;53.486;10.218;2023-12-28T08:59:28;5.80;;;2.05;;
17844;SDS011;9047;53.486;10.218;2023-12-28T09:01:55;8.18;;;2.45;;
17844;SDS011;9047;53.486;10.218;2023-12-28T09:04:22;8.88;;;2.28;;
17844;SDS011;9047;53.486;10.218;2023-12-28T09:06:48;6.60;;;2.30;;
17844;SDS011;9047;53.486;10.218;2023-12-28T09:09:15;5.40;;;1.80;;
17844;SDS011;9047;53.486;10.218;2023-12-28T09:11:42;12.40;;;2.70;;
17844;SDS011;9047;53.486;10.218;2023-12-28T09:14:10;11.15;;;2.60;;
17844;SDS011;9047;53.486;10.218;2023-12-28T09:16:37;8.18;;;2.22;;
17844;SDS011;9047;53.486;10.218;2023-12-28T09:19:04;8.85;;;2.40;;
17844;SDS011;9047;53.486;10.218;2023-12-28T09:21:31;6.22;;;2.10;;
17844;SDS011;9047;53.486;10.218;2023-12-28T09:23:59;9.48;;;2.55;;
17844;SDS011;9047;53.486;10.218;2023-12-28T09:26:26;7.03;;;2.28;;
17844;SDS011;9047;53.486;10.218;2023-12-28T09:28:53;9.18;;;2.53;;
17844;SDS011;9047;53.486;10.218;2023-12-28T09:31:23;7.75;;;2.05;;
17844;SDS011;9047;53.486;10.218;2023-12-28T09:33:51;7.25;;;2.00;;
17844;SDS011;9047;53.486;10.218;2023-12-28T09:36:18;10.82;;;2.45;;
17844;SDS011;9047;53.486;10.218;2023-12-28T09:38:44;10.10;;;2.30;;
17844;SDS011;9047;53.486;10.218;2023-12-28T09:41:12;8.43;;;2.42;;
17844;SDS011;9047;53.486;10.218;2023-12-28T09:43:41;10.35;;;2.08;;
17844;SDS011;9047;53.486;10.218;2023-12-28T09:46:16;12.20;;;2.42;;
17844;SDS011;9047;53.486;10.218;2023-12-28T09:48:44;8.27;;;2.13;;
17844;SDS011;9047;53.486;10.218;2023-12-28T09:51:11;11.48;;;2.38;;
17844;SDS011;9047;53.486;10.218;2023-12-28T09:53:38;10.30;;;2.72;;
17844;SDS011;9047;53.486;10.218;2023-12-28T09:56:05;7.43;;;2.00;;
17844;SDS011;9047;53.486;10.218;2023-12-28T09:58:33;10.77;;;2.22;;
17844;SDS011;9047;53.486;10.218;2023-12-28T10:01:02;8.15;;;1.80;;
17844;SDS011;9047;53.486;10.218;2023-12-28T10:03:31;7.63;;;2.08;;
17844;SDS011;9047;53.486;10.218;2023-12-28T10:05:59;10.95;;;2.30;;
17844;SDS011;9047;53.486;10.218;2023-12-28T10:08:28;8.32;;;1.80;;
17844;SDS011;9047;53.486;10.218;2023-12-28T10:10:55;11.32;;;2.15;;
17844;SDS011;9047;53.486;10.218;2023-12-28T10:13:24;11.88;;;2.20;;
17844;SDS011;9047;53.486;10.218;2023-12-28T10:15:51;6.90;;;1.95;;
17844;SDS011;9047;53.486;10.218;2023-12-28T10:18:18;7.25;;;2.30;;
17844;SDS011;9047;53.486;10.218;2023-12-28T10:20:48;9.30;;;2.72;;
17844;SDS011;9047;53.486;10.218;2023-12-28T10:23:17;8.88;;;2.75;;
17844;SDS011;9047;53.486;10.218;2023-12-28T10:25:46;10.15;;;2.05;;
17844;SDS011;9047;53.486;10.218;2023-12-28T10:28:13;6.80;;;1.88;;
17844;SDS011;9047;53.486;10.218;2023-12-28T10:30:44;11.38;;;2.65;;
17844;SDS011;9047;53.486;10.218;2023-12-28T10:33:13;9.45;;;2.53;;
17844;SDS011;9047;53.486;10.218;2023-12-28T10:35:41;10.23;;;2.50;;
17844;SDS011;9047;53.486;10.218;2023-12-28T10:38:11;8.02;;;2.20;;
17844;SDS011;9047;53.486;10.218;2023-12-28T10:40:47;8.70;;;1.95;;
17844;SDS011;9047;53.486;10.218;2023-12-28T10:43:22;13.07;;;2.90;;
17844;SDS011;9047;53.486;10.218;2023-12-28T10:45:51;6.82;;;2.30;;
17844;SDS011;9047;53.486;10.218;2023-12-28T10:48:23;11.38;;;2.30;;
17844;SDS011;9047;53.486;10.218;2023-12-28T10:50:55;7.72;;;2.20;;
17844;SDS011;9047;53.486;10.218;2023-12-28T10:53:28;10.15;;;2.60;;
17844;SDS011;9047;53.486;10.218;2023-12-28T10:56:09;9.15;;;2.42;;
17844;SDS011;9047;53.486;10.218;2023-12-28T10:58:47;7.88;;;2.30;;
17844;SDS011;9047;53.486;10.218;2023-12-28T11:01:17;8.57;;;2.30;;
17844;SDS011;9047;53.486;10.218;2023-12-28T11:03:51;11.20;;;2.13;;
17844;SDS011;9047;53.486;10.218;2023-12-28T11:06:31;11.80;;;2.78;;
17844;SDS011;9047;53.486;10.218;2023-12-28T11:09:16;8.68;;;2.28;;
17844;SDS011;9047;53.486;10.218;2023-12-28T11:11:46;8.45;;;2.00;;
17844;SDS011;9047;53.486;10.218;2023-12-28T11:14:17;12.43;;;2.85;;
17844;SDS011;9047;53.486;10.218;2023-12-28T11:16:48;9.60;;;2.20;;
17844;SDS011;9047;53.486;10.218;2023-12-28T11:19:19;8.98;;;2.35;;
17844;SDS011;9047;53.486;10.218;2023-12-28T11:21:48;9.95;;;2.10;;
17844;SDS011;9047;53.486;10.218;2023-12-28T11:24:18;10.68;;;2.42;;
17844;SDS011;9047;53.486;10.218;2023-12-28T11:26:54;10.98;;;2.70;;
17844;SDS011;9047;53.486;10.218;2023-12-28T11:29:29;10.25;;;2.33;;
17844;SDS011;9047;53.486;10.218;2023-12-28T11:31:59;9.38;;;2.35;;
17844;SDS011;9047;53.486;10.218;2023-12-28T11:34:36;10.43;;;2.45;;
17844;SDS011;9047;53.486;10.218;2023-12-28T11:37:04;10.68;;;2.80;;
17844;SDS011;9047;53.486;10.218;2023-12-28T11:39:35;8.63;;;2.28;;
17844;SDS011;9047;53.486;10.218;2023-12-28T11:44:54;12.18;;;2.67;;
17844;SDS011;9047;53.486;10.218;2023-12-28T11:47:23;12.77;;;2.55;;
17844;SDS011;9047;53.486;10.218;2023-12-28T11:49:53;12.85;;;3.03;;
17844;SDS011;9047;53.486;10.218;2023-12-28T11:52:23;12.95;;;2.70;;
17844;SDS011;9047;53.486;10.218;2023-12-28T11:54:53;12.68;;;3.13;;
17844;SDS011;9047;53.486;10.218;2023-12-28T11:57:21;11.63;;;2.70;;
17844;SDS011;9047;53.486;10.218;2023-12-28T11:59:54;9.57;;;2.80;;
17844;SDS011;9047;53.486;10.218;2023-12-28T12:02:22;11.57;;;2.50;;
17844;SDS011;9047;53.486;10.218;2023-12-28T12:04:50;10.80;;;2.40;;
17844;SDS011;9047;53.486;10.218;2023-12-28T12:07:16;7.65;;;2.63;;
17844;SDS011;9047;53.486;10.218;2023-12-28T12:09:46;14.00;;;2.80;;
17844;SDS011;9047;53.486;10.218;2023-12-28T12:12:15;7.95;;;2.67;;
17844;SDS011;9047;53.486;10.218;2023-12-28T12:14:43;13.98;;;2.70;;
17844;SDS011;9047;53.486;10.218;2023-12-28T12:17:11;12.65;;;2.65;;
17844;SDS011;9047;53.486;10.218;2023-12-28T12:19:43;9.52;;;2.75;;
17844;SDS011;9047;53.486;10.218;2023-12-28T12:22:13;14.65;;;2.88;;
17844;SDS011;9047;53.486;10.218;2023-12-28T12:24:41;9.52;;;2.45;;
17844;SDS011;9047;53.486;10.218;2023-12-28T12:27:10;9.57;;;2.25;;
17844;SDS011;9047;53.486;10.218;2023-12-28T12:29:37;15.05;;;2.70;;
17844;SDS011;9047;53.486;10.218;2023-12-28T12:32:05;12.35;;;2.40;;
17844;SDS011;9047;53.486;10.218;2023-12-28T12:34:34;10.68;;;2.58;;
17844;SDS011;9047;53.486;10.218;2023-12-28T12:37:01;15.38;;;2.70;;
17844;SDS011;9047;53.486;10.218;2023-12-28T12:39:29;13.75;;;2.70;;
17844;SDS011;9047;53.486;10.218;2023-12-28T12:41:59;12.23;;;2.50;;
17844;SDS011;9047;53.486;10.218;2023-12-28T12:44:26;12.88;;;2.47;;
17844;SDS011;9047;53.486;10.218;2023-12-28T12:46:56;14.77;;;3.20;;
17844;SDS011;9047;53.486;10.218;2023-12-28T12:49:24;11.43;;;2.90;;
17844;SDS011;9047;53.486;10.218;2023-12-28T12:51:54;13.50;;;2.90;;
17844;SDS011;9047;53.486;10.218;2023-12-28T12:54:22;10.68;;;2.55;;
17844;SDS011;9047;53.486;10.218;2023-12-28T12:56:49;12.23;;;2.78;;
17844;SDS011;9047;53.486;10.218;2023-12-28T12:59:17;11.27;;;2.67;;
17844;SDS011;9047;53.486;10.218;2023-12-28T13:01:45;14.73;;;2.88;;
17844;SDS011;9047;53.486;10.218;2023-12-28T13:04:13;12.63;;;2.60;;
17844;SDS011;9047;53.486;10.218;2023-12-28T13:06:40;12.60;;;3.15;;
17844;SDS011;9047;53.486;10.218;2023-12-28T13:09:09;12.95;;;2.80;;
17844;SDS011;9047;53.486;10.218;2023-12-28T13:11:37;8.35;;;2.55;;
17844;SDS011;9047;53.486;10.218;2023-12-28T13:14:03;10.20;;;2.47;;
17844;SDS011;9047;53.486;10.218;2023-12-28T13:16:33;12.30;;;2.85;;
17844;SDS011;9047;53.486;10.218;2023-12-28T13:19:00;9.57;;;2.80;;
17844;SDS011;9047;53.486;10.218;2023-12-28T13:21:30;11.45;;;3.08;;
17844;SDS011;9047;53.486;10.218;2023-12-28T13:23:58;12.63;;;2.53;;
17844;SDS011;9047;53.486;10.218;2023-12-28T13:26:28;11.88;;;2.80;;
17844;SDS011;9047;53.486;10.218;2023-12-28T13:28:55;13.80;;;2.83;;
17844;SDS011;9047;53.486;10.218;2023-12-28T13:31:22;9.75;;;2.90;;
17844;SDS011;9047;53.486;10.218;2023-12-28T13:33:50;11.68;;;3.17;;
17844;SDS011;9047;53.486;10.218;2023-12-28T13:36:16;14.00;;;3.28;;
17844;SDS011;9047;53.486;10.218;2023-12-28T13:38:43;12.23;;;2.80;;
17844;SDS011;9047;53.486;10.218;2023-12-28T13:41:10;13.60;;;2.72;;
17844;SDS011;9047;53.486;10.218;2023-12-28T13:43:38;14.45;;;2.92;;
17844;SDS011;9047;53.486;10.218;2023-12-28T13:46:05;12.73;;;3.38;;
17844;SDS011;9047;53.486;10.218;2023-12-28T13:48:32;12.45;;;2.72;;
17844;SDS011;9047;53.486;10.218;2023-12-28T13:51:00;12.75;;;2.88;;
17844;SDS011;9047;53.486;10.218;2023-12-28T13:53:27;10.65;;;2.50;;
17844;SDS011;9047;53.486;10.218;2023-12-28T13:55:53;11.50;;;2.30;;
17844;SDS011;9047;53.486;10.218;2023-12-28T13:58:20;14.40;;;2.90;;
17844;SDS011;9047;53.486;10.218;2023-12-28T14:00:49;9.27;;;2.30;;
17844;SDS011;9047;53.486;10.218;2023-12-28T14:03:15;12.70;;;2.75;;
17844;SDS011;9047;53.486;10.218;2023-12-28T14:05:42;10.32;;;2.45;;
17844;SDS011;9047;53.486;10.218;2023-12-28T14:08:09;13.52;;;2.58;;
17844;SDS011;9047;53.486;10.218;2023-12-28T14:10:36;14.70;;;2.65;;
17844;SDS011;9047;53.486;10.218;2023-12-28T14:13:03;14.98;;;2.95;;
17844;SDS011;9047;53.486;10.218;2023-12-28T14:15:31;12.77;;;2.92;;
17844;SDS011;9047;53.486;10.218;2023-12-28T14:17:59;15.60;;;2.60;;
17844;SDS011;9047;53.486;10.218;2023-12-28T14:20:26;11.15;;;2.60;;
17844;SDS011;9047;53.486;10.218;2023-12-28T14:22:53;15.13;;;2.80;;
17844;SDS011;9047;53.486;10.218;2023-12-28T14:25:21;12.75;;;3.35;;
17844;SDS011;9047;53.486;10.218;2023-12-28T14:27:48;13.30;;;3.00;;
17844;SDS011;9047;53.486;10.218;2023-12-28T14:30:18;14.50;;;2.70;;
17844;SDS011;9047;53.486;10.218;2023-12-28T14:32:49;13.70;;;2.45;;
17844;SDS011;9047;53.486;10.218;2023-12-28T14:35:19;12.15;;;2.70;;
17844;SDS011;9047;53.486;10.218;2023-12-28T14:37:50;10.35;;;2.42;;
17844;SDS011;9047;53.486;10.218;2023-12-28T14:40:19;13.38;;;3.25;;
17844;SDS011;9047;53.486;10.218;2023-12-28T14:42:46;15.13;;;3.05;;
17844;SDS011;9047;53.486;10.218;2023-12-28T14:45:13;14.13;;;2.55;;
17844;SDS011;9047;53.486;10.218;2023-12-28T14:47:40;13.23;;;2.47;;
17844;SDS011;9047;53.486;10.218;2023-12-28T14:50:12;11.48;;;2.65;;
17844;SDS011;9047;53.486;10.218;2023-12-28T14:52:44;12.90;;;2.85;;